Startpagina
METAR-TAF:

METAR-TAF

Vliegvelden :

Quelimane, Mozambique

breedte: 17-53S, lengte: 036-53E, hoogte: 6 m

Actueel weer

Dit bericht is 3 uur en het 11 minuten geleden gemaakt, om 11:00 UTC
Wind 4 kt uit het zuidwesten
Temperatuur 33°C
Vochtigheid 59%
Druk 1011 hPa
Zicht 10 km of meer
Verspreide wolken op 2000 ft

METAR: FQQL 281100Z 22504KT 9999 SCT020 33/24 Q1011

Tijdstip: 16:11 (14:11 UTC)

Verwachting

Dit bericht is 4 uur en het 11 minuten geleden gemaakt, om 10:00 UTC
Verwachting geldig van 28 om 12 UTC tot 29 om 12 UTC
Wind 12 kt uit het zuidzuidoosten
Zicht 10 km of meer
Gebroken wolken op 2000 ft
Wijzigt naar
van 28 om 18 UTC tot 28 om 20 UTC
Wind 8 kt uit het zuidzuidwesten
Wijzigt naar
van 29 om 05 UTC tot 29 om 07 UTC
Wind 12 kt uit het zuidzuidoosten

TAF: FQQL 281000Z 2812/2912 15012KT 9999 BKN020 TX32/2813Z TN24/2903Z BECMG 2818/2820 21008KT BECMG 2905/2907 15012KT

Waarnemingen en weersverwachtingen van meer dan 4000 vliegvelden (METAR en TAF).

De beschikbare stations zijn de gele en rode punten op de kaart.

Ga met uw muis naar het station om de naam te zien.

Klik dan om waarnemingen en weersverwachtingen te zien.

kaart wijzigen: klik op de groene knoppen met een zwart kruis om in te zoomen, op de groene knop met een streepje om uit te zoomen of op de groene pijlen voor aangrenzende kaarten.


METAR-TAF: